KTBR

Statesboro-Bulloch County Airport

Statesboro, Georgia, USA
METAR KTBR 182215Z AUTO 15005KT 10SM CLR 32/22 A3004 RMK AO2 T03150218
Observed Flight Rules
Jun-18 @ 22:15 UTC (23 minutes ago) Visual Flight Rules
Wind Visibility Clouds
150° at 5 knots 10 miles
  • Clear skies
Temperatures Readings
Current 32°C / 90°F
Dewpoint 22°C / 72°F
Humidity 55%
Altimeter 30.04" Hg
Pressure 1017 hPa
Elevation 57
METAR KTBR 182215Z AUTO 15005KT 10SM CLR 32/22 A3004 RMK AO2 T03150218
Observed Flight Rules
Jun-18 @ 22:15 UTC
(23 minutes ago)
VFR
Wind Visibility
150° at 5 knots 10 miles
Clouds
  • Clear skies
Temperature Dewpoint
32°C / 90°F 22°C / 72°F
Humidity Altimeter Pressure
55% 30.04" Hg 1017 hPa